Time;durP1;ratioP1;P1;durP2;ratioP2;P2;SDS_P1;SDS_P2;PMS_P1;PMS_P2;Temp;Humidity;BMP_temperature;BMP_pressure;BME280_temperature;BME280_humidity;BME280_pressure;Samples;Min_cycle;Max_cycle;Signal;HPM_P1;HPM_P2
2022/01/20 00:01:05;;;;;;;222.05;76.65;;;;;;;;;;6275886;22;20438;-76
2022/01/20 00:03:32;;;;;;;196.77;73.53;;;;;;;;;;6282519;22;20018;-77
2022/01/20 00:08:52;;;;;;;202.13;72.07;;;;;;;;;;6274122;22;20008;-77
2022/01/20 00:28:13;;;;;;;149.48;54.03;;;;;;;;;;6218883;23;20035;-76
2022/01/20 00:30:50;;;;;;;152.07;55.72;;;;;;;;;;6221462;22;20023;-76
2022/01/20 00:38:37;;;;;;;182.07;65.93;;;;;;;;;;6274998;22;20058;-77
2022/01/20 00:41:04;;;;;;;194.13;65.38;;;;;;;;;;6273751;22;20006;-77
2022/01/20 00:43:29;;;;;;;177.07;66.13;;;;;;;;;;6273854;22;20000;-76
2022/01/20 00:45:56;;;;;;;160.90;53.53;;;;;;;;;;6277426;22;20418;-76
2022/01/20 00:48:22;;;;;;;155.50;50.20;;;;;;;;;;6270441;22;20103;-76
2022/01/20 00:50:47;;;;;;;144.98;53.55;;;;;;;;;;6250167;22;20408;-76
2022/01/20 00:53:13;;;;;;;157.00;52.08;;;;;;;;;;6273911;22;20062;-76
2022/01/20 00:55:39;;;;;;;135.65;51.38;;;;;;;;;;6248399;22;20019;-76
2022/01/20 00:58:05;;;;;;;134.23;46.58;;;;;;;;;;6275106;22;20011;-77
2022/01/20 01:00:30;;;;;;;144.25;50.03;;;;;;;;;;6273587;22;20112;-77
2022/01/20 01:02:56;;;;;;;152.18;51.33;;;;;;;;;;6275074;22;20000;-76
2022/01/20 01:05:22;;;;;;;142.43;53.80;;;;;;;;;;6274541;22;19996;-77
2022/01/20 01:07:49;;;;;;;157.55;53.75;;;;;;;;;;6276488;22;20025;-75
2022/01/20 01:10:29;;;;;;;172.68;57.78;;;;;;;;;;6286754;22;20091;-76
2022/01/20 01:13:03;;;;;;;150.35;52.10;;;;;;;;;;6273448;22;20010;-76
2022/01/20 01:15:39;;;;;;;151.10;50.78;;;;;;;;;;6274871;22;20000;-77
2022/01/20 01:23:22;;;;;;;139.48;46.67;;;;;;;;;;6274932;22;20003;-77
2022/01/20 01:25:48;;;;;;;139.50;45.83;;;;;;;;;;6275787;22;20011;-77
2022/01/20 01:28:13;;;;;;;127.35;46.60;;;;;;;;;;6274531;22;20000;-76
2022/01/20 01:33:19;;;;;;;132.50;48.83;;;;;;;;;;6276934;22;20096;-77
2022/01/20 01:35:54;;;;;;;144.55;49.08;;;;;;;;;;6273449;22;20000;-76
2022/01/20 01:38:25;;;;;;;137.75;48.03;;;;;;;;;;6249997;22;20343;-76
2022/01/20 01:40:51;;;;;;;130.57;46.22;;;;;;;;;;6273236;22;20003;-76
2022/01/20 01:43:25;;;;;;;141.85;49.15;;;;;;;;;;6222815;22;20030;-77
2022/01/20 01:45:50;;;;;;;125.57;46.78;;;;;;;;;;6275432;22;20090;-76
2022/01/20 01:48:16;;;;;;;129.32;48.03;;;;;;;;;;6275832;22;20054;-77
2022/01/20 01:50:41;;;;;;;142.43;49.03;;;;;;;;;;6273168;22;20423;-77
2022/01/20 01:53:07;;;;;;;144.02;49.85;;;;;;;;;;6260916;22;19984;-76
2022/01/20 01:55:32;;;;;;;148.88;52.17;;;;;;;;;;6274717;22;20393;-76
2022/01/20 01:57:58;;;;;;;152.93;53.55;;;;;;;;;;6247429;22;20038;-76
2022/01/20 02:00:23;;;;;;;123.43;42.88;;;;;;;;;;6297853;22;20014;-77
2022/01/20 02:02:49;;;;;;;115.25;36.25;;;;;;;;;;6281418;22;19994;-77
2022/01/20 02:05:16;;;;;;;100.85;35.85;;;;;;;;;;6276521;22;20003;-76
2022/01/20 02:18:49;;;;;;;93.45;28.30;;;;;;;;;;6253692;22;20038;-77
2022/01/20 02:21:15;;;;;;;78.10;25.65;;;;;;;;;;6251083;22;20491;-77
2022/01/20 02:23:41;;;;;;;79.05;25.17;;;;;;;;;;6249540;22;20007;-76
2022/01/20 02:26:06;;;;;;;80.57;24.85;;;;;;;;;;6249867;22;20098;-76
2022/01/20 02:28:32;;;;;;;77.60;24.27;;;;;;;;;;6275510;22;20004;-76
2022/01/20 02:30:57;;;;;;;70.32;23.08;;;;;;;;;;6275582;22;20027;-76
2022/01/20 02:33:24;;;;;;;63.05;24.00;;;;;;;;;;6276482;22;20004;-76
2022/01/20 02:35:52;;;;;;;66.50;23.17;;;;;;;;;;6261371;22;20007;-79
2022/01/20 02:46:17;;;;;;;69.03;25.98;;;;;;;;;;6276572;22;20105;-77
2022/01/20 02:48:43;;;;;;;73.25;25.65;;;;;;;;;;6274676;22;20427;-77
2022/01/20 02:51:08;;;;;;;62.97;20.77;;;;;;;;;;6275275;22;20411;-76
2022/01/20 02:53:34;;;;;;;66.00;22.70;;;;;;;;;;6274915;22;20004;-76
2022/01/20 02:55:59;;;;;;;60.03;22.30;;;;;;;;;;6280040;22;20454;-77
2022/01/20 02:58:25;;;;;;;65.00;22.30;;;;;;;;;;6255789;22;20003;-77
2022/01/20 03:00:50;;;;;;;65.15;22.38;;;;;;;;;;6274794;22;20073;-76
2022/01/20 03:03:16;;;;;;;52.53;16.73;;;;;;;;;;6223761;22;20060;-76
2022/01/20 03:05:42;;;;;;;49.33;15.95;;;;;;;;;;6249780;22;20011;-77
2022/01/20 03:08:07;;;;;;;46.13;15.15;;;;;;;;;;6249486;22;20504;-76
2022/01/20 03:10:33;;;;;;;55.13;17.25;;;;;;;;;;6274513;22;20008;-76
2022/01/20 03:12:58;;;;;;;63.20;20.33;;;;;;;;;;6274702;22;20004;-76
2022/01/20 03:15:24;;;;;;;64.47;21.85;;;;;;;;;;6274753;22;20011;-76
2022/01/20 03:17:50;;;;;;;80.10;27.92;;;;;;;;;;6257326;22;20004;-76
2022/01/20 03:20:15;;;;;;;74.00;25.67;;;;;;;;;;6249229;22;20004;-76
2022/01/20 03:22:41;;;;;;;64.22;21.23;;;;;;;;;;6274676;22;19999;-76
2022/01/20 03:25:06;;;;;;;48.90;20.55;;;;;;;;;;6248381;22;20008;-76
2022/01/20 03:27:32;;;;;;;58.35;19.00;;;;;;;;;;6275642;22;20007;-75
2022/01/20 03:29:57;;;;;;;48.78;17.17;;;;;;;;;;6248968;22;20003;-76
2022/01/20 03:32:23;;;;;;;54.45;18.60;;;;;;;;;;6274389;22;20086;-76
2022/01/20 03:34:48;;;;;;;59.08;19.90;;;;;;;;;;6249158;22;20008;-76
2022/01/20 03:37:14;;;;;;;52.60;17.50;;;;;;;;;;6277874;22;20027;-76
2022/01/20 03:39:39;;;;;;;46.60;17.77;;;;;;;;;;6279203;22;20011;-76
2022/01/20 03:42:05;;;;;;;49.65;16.88;;;;;;;;;;6274384;22;20002;-76
2022/01/20 03:44:30;;;;;;;56.08;18.75;;;;;;;;;;6274269;22;20011;-75
2022/01/20 03:46:58;;;;;;;49.42;18.27;;;;;;;;;;6274145;22;19999;-76
2022/01/20 03:49:33;;;;;;;50.83;17.38;;;;;;;;;;6274247;22;20065;-75
2022/01/20 03:51:59;;;;;;;54.85;17.35;;;;;;;;;;6250964;22;20007;-79
2022/01/20 03:54:24;;;;;;;42.60;15.98;;;;;;;;;;6248881;22;20091;-76
2022/01/20 03:56:50;;;;;;;47.13;15.63;;;;;;;;;;6274186;22;20004;-78
2022/01/20 03:59:15;;;;;;;48.67;17.83;;;;;;;;;;6276466;22;20008;-76
2022/01/20 04:01:41;;;;;;;58.13;21.95;;;;;;;;;;6273775;22;19999;-76
2022/01/20 04:04:07;;;;;;;57.28;19.52;;;;;;;;;;6274430;22;20064;-76
2022/01/20 04:06:32;;;;;;;96.03;30.33;;;;;;;;;;6274651;22;20071;-77
2022/01/20 04:08:58;;;;;;;82.30;28.58;;;;;;;;;;6223259;22;20496;-76
2022/01/20 04:11:25;;;;;;;83.30;28.88;;;;;;;;;;6275851;22;20027;-76
2022/01/20 04:13:51;;;;;;;67.45;27.23;;;;;;;;;;6248739;22;20449;-77
2022/01/20 04:16:36;;;;;;;84.45;29.63;;;;;;;;;;6248682;22;20000;-77
2022/01/20 04:19:07;;;;;;;95.32;31.45;;;;;;;;;;6231515;22;20003;-75
2022/01/20 04:21:33;;;;;;;75.90;27.60;;;;;;;;;;6251110;22;20007;-76
2022/01/20 04:23:59;;;;;;;81.28;27.73;;;;;;;;;;6275729;22;20435;-76
2022/01/20 04:26:26;;;;;;;79.00;28.65;;;;;;;;;;6248376;22;20090;-76
2022/01/20 04:28:56;;;;;;;84.68;31.15;;;;;;;;;;6248821;22;20083;-77
2022/01/20 04:31:25;;;;;;;96.57;32.28;;;;;;;;;;6225099;22;20015;-77
2022/01/20 04:33:51;;;;;;;88.35;32.20;;;;;;;;;;6248357;22;20007;-76
2022/01/20 04:36:17;;;;;;;87.03;33.92;;;;;;;;;;6274310;22;20073;-77
2022/01/20 04:38:42;;;;;;;88.47;30.98;;;;;;;;;;6248143;22;20462;-77
2022/01/20 04:41:08;;;;;;;89.57;32.63;;;;;;;;;;6276356;22;20346;-77
2022/01/20 04:43:34;;;;;;;103.22;38.03;;;;;;;;;;6275255;22;19999;-78
2022/01/20 04:46:08;;;;;;;82.80;31.58;;;;;;;;;;6273448;22;20004;-77
2022/01/20 04:49:03;;;;;;;91.35;34.58;;;;;;;;;;6227113;22;20377;-77
2022/01/20 04:57:06;;;;;;;98.68;36.90;;;;;;;;;;6250837;22;20758;-76
2022/01/20 04:59:32;;;;;;;103.55;38.00;;;;;;;;;;6275126;22;20007;-76
2022/01/20 05:01:57;;;;;;;108.35;38.60;;;;;;;;;;6263869;22;20004;-77
2022/01/20 05:04:24;;;;;;;126.60;41.47;;;;;;;;;;6279423;22;20430;-77
2022/01/20 05:06:52;;;;;;;113.80;42.78;;;;;;;;;;6248402;22;20011;-77
2022/01/20 05:09:20;;;;;;;133.77;45.33;;;;;;;;;;6248478;22;20034;-77
2022/01/20 05:12:11;;;;;;;166.90;57.38;;;;;;;;;;6274911;22;20004;-77
2022/01/20 05:14:32;;;;;;;199.25;68.65;;;;;;;;;;6272670;22;20004;-77
2022/01/20 05:16:58;;;;;;;204.38;71.53;;;;;;;;;;6247785;22;20075;-77
2022/01/20 05:19:27;;;;;;;184.77;63.63;;;;;;;;;;6247965;22;20023;-78
2022/01/20 05:21:52;;;;;;;155.18;58.03;;;;;;;;;;6264138;22;20082;-79
2022/01/20 05:24:18;;;;;;;180.40;61.20;;;;;;;;;;6284920;22;20497;-79
2022/01/20 05:26:43;;;;;;;167.88;60.35;;;;;;;;;;6248246;22;20012;-78
2022/01/20 05:29:09;;;;;;;178.82;64.95;;;;;;;;;;6274124;22;20425;-79
2022/01/20 05:31:34;;;;;;;218.98;79.50;;;;;;;;;;6273179;22;20004;-78
2022/01/20 05:34:01;;;;;;;205.60;74.82;;;;;;;;;;6274724;22;19999;-78
2022/01/20 05:36:27;;;;;;;208.60;70.80;;;;;;;;;;6248219;22;20011;-78
2022/01/20 05:38:52;;;;;;;239.23;84.50;;;;;;;;;;6274898;22;19996;-78
2022/01/20 05:41:20;;;;;;;226.52;80.85;;;;;;;;;;6289071;22;20011;-80
2022/01/20 05:43:46;;;;;;;243.32;86.70;;;;;;;;;;6282756;22;20010;-78
2022/01/20 05:46:14;;;;;;;229.38;83.55;;;;;;;;;;6273420;22;20008;-78
2022/01/20 05:48:46;;;;;;;229.27;84.05;;;;;;;;;;6273176;22;20007;-78
2022/01/20 05:51:11;;;;;;;221.82;78.75;;;;;;;;;;6250428;22;20411;-79
2022/01/20 05:53:37;;;;;;;233.85;82.82;;;;;;;;;;6277519;22;19995;-78
2022/01/20 05:56:02;;;;;;;234.55;82.13;;;;;;;;;;6277200;22;20442;-76
2022/01/20 05:58:29;;;;;;;218.60;78.57;;;;;;;;;;6278878;22;20006;-76
2022/01/20 06:00:55;;;;;;;208.38;72.25;;;;;;;;;;6277863;22;20004;-78
2022/01/20 06:03:40;;;;;;;217.32;73.25;;;;;;;;;;6252046;22;20369;-76
2022/01/20 06:06:11;;;;;;;181.73;65.75;;;;;;;;;;6277459;22;20015;-76
2022/01/20 06:08:41;;;;;;;208.85;74.78;;;;;;;;;;6274986;22;20004;-75
2022/01/20 06:11:12;;;;;;;221.82;78.22;;;;;;;;;;6250104;22;20004;-79
2022/01/20 06:13:38;;;;;;;226.52;82.45;;;;;;;;;;6275274;22;20000;-78
2022/01/20 06:16:41;;;;;;;220.70;78.35;;;;;;;;;;6276850;22;20007;-76
2022/01/20 06:19:07;;;;;;;224.40;78.90;;;;;;;;;;6278903;22;20026;-78
2022/01/20 06:21:33;;;;;;;207.38;78.03;;;;;;;;;;6279959;22;20004;-76
2022/01/20 06:23:58;;;;;;;191.20;67.53;;;;;;;;;;6285379;22;20027;-79
2022/01/20 06:26:27;;;;;;;183.70;68.60;;;;;;;;;;6274905;22;20015;-79
2022/01/20 06:28:57;;;;;;;197.15;72.57;;;;;;;;;;6255342;22;20008;-78
2022/01/20 06:31:23;;;;;;;205.75;71.80;;;;;;;;;;6280545;22;20470;-76
2022/01/20 06:33:48;;;;;;;233.63;85.82;;;;;;;;;;6275199;22;20002;-77
2022/01/20 06:36:27;;;;;;;177.13;62.50;;;;;;;;;;6249102;22;20010;-79
2022/01/20 06:38:54;;;;;;;166.43;53.17;;;;;;;;;;6280352;22;20000;-79
2022/01/20 06:41:24;;;;;;;170.48;55.50;;;;;;;;;;6226173;22;20415;-78
2022/01/20 06:44:08;;;;;;;142.95;49.92;;;;;;;;;;6285794;22;20191;-77
2022/01/20 06:46:53;;;;;;;156.48;53.75;;;;;;;;;;6283139;22;20003;-79
2022/01/20 06:49:42;;;;;;;148.95;51.60;;;;;;;;;;6249659;22;20327;-80
2022/01/20 06:52:14;;;;;;;157.68;50.95;;;;;;;;;;6268037;22;20004;-79
2022/01/20 06:54:39;;;;;;;157.25;55.33;;;;;;;;;;6273956;22;20104;-79
2022/01/20 06:59:42;;;;;;;358.80;116.32;;;;;;;;;;6277189;22;20026;-76
2022/01/20 07:08:25;;;;;;;339.55;103.72;;;;;;;;;;6269990;22;20396;-81
2022/01/20 07:10:50;;;;;;;348.70;111.18;;;;;;;;;;6250216;22;20008;-78
2022/01/20 07:13:16;;;;;;;404.80;125.00;;;;;;;;;;6246200;22;20004;-81
2022/01/20 07:15:41;;;;;;;271.33;93.03;;;;;;;;;;6244932;22;20011;-79
2022/01/20 07:18:07;;;;;;;240.77;89.15;;;;;;;;;;6272095;22;20027;-76
2022/01/20 07:20:33;;;;;;;173.15;63.00;;;;;;;;;;6274489;22;20007;-74
2022/01/20 07:22:58;;;;;;;248.27;80.40;;;;;;;;;;6250312;22;20015;-76
2022/01/20 07:25:24;;;;;;;292.77;85.20;;;;;;;;;;6271825;22;20442;-78
2022/01/20 07:27:50;;;;;;;155.80;54.97;;;;;;;;;;6270982;22;20008;-77
2022/01/20 07:30:16;;;;;;;161.85;51.53;;;;;;;;;;6224569;22;20039;-75
2022/01/20 07:32:41;;;;;;;127.65;44.13;;;;;;;;;;6274821;22;20007;-75
2022/01/20 07:35:07;;;;;;;132.00;48.95;;;;;;;;;;6274582;22;20004;-77
2022/01/20 07:37:33;;;;;;;150.70;49.65;;;;;;;;;;6275885;22;20003;-77
2022/01/20 07:39:58;;;;;;;164.02;51.97;;;;;;;;;;6277525;22;20004;-79
2022/01/20 07:42:27;;;;;;;138.32;44.90;;;;;;;;;;6280626;22;20047;-78
2022/01/20 07:44:52;;;;;;;198.23;57.38;;;;;;;;;;6249560;22;20447;-78
2022/01/20 07:47:21;;;;;;;191.18;57.95;;;;;;;;;;6271828;22;20010;-78
2022/01/20 07:49:59;;;;;;;168.07;54.30;;;;;;;;;;6273498;22;20000;-79
2022/01/20 07:52:25;;;;;;;142.40;48.30;;;;;;;;;;6275794;22;20004;-81
2022/01/20 07:54:50;;;;;;;124.47;42.30;;;;;;;;;;6244814;22;20003;-78
2022/01/20 07:57:16;;;;;;;102.32;33.72;;;;;;;;;;6267069;22;20033;-75
2022/01/20 07:59:42;;;;;;;64.20;22.45;;;;;;;;;;6244576;22;20015;-77
2022/01/20 08:02:11;;;;;;;49.65;14.88;;;;;;;;;;6271930;22;20004;-78
2022/01/20 08:04:39;;;;;;;53.70;16.95;;;;;;;;;;6267820;22;20003;-77
2022/01/20 08:07:05;;;;;;;57.45;18.25;;;;;;;;;;6267331;22;20430;-78
2022/01/20 08:09:30;;;;;;;35.90;13.27;;;;;;;;;;6276065;22;19995;-77
2022/01/20 08:11:56;;;;;;;49.03;15.07;;;;;;;;;;6268890;22;20378;-75
2022/01/20 08:14:21;;;;;;;41.20;14.38;;;;;;;;;;6269996;22;20003;-76
2022/01/20 08:16:47;;;;;;;44.75;14.02;;;;;;;;;;6272751;22;20057;-77
2022/01/20 08:19:13;;;;;;;41.60;13.65;;;;;;;;;;6272680;22;20075;-78
2022/01/20 08:21:38;;;;;;;39.85;12.05;;;;;;;;;;6272882;22;20027;-77
2022/01/20 08:24:04;;;;;;;35.60;11.60;;;;;;;;;;6279895;22;19996;-75
2022/01/20 08:26:30;;;;;;;34.13;9.30;;;;;;;;;;6268192;22;20007;-75
2022/01/20 08:28:56;;;;;;;31.23;10.18;;;;;;;;;;6271250;22;20006;-76
2022/01/20 08:31:22;;;;;;;32.05;10.45;;;;;;;;;;6270192;22;20075;-77
2022/01/20 08:33:47;;;;;;;28.23;10.52;;;;;;;;;;6275182;22;20003;-83
2022/01/20 08:36:13;;;;;;;62.05;22.02;;;;;;;;;;6277915;22;20015;-81
2022/01/20 08:38:38;;;;;;;28.23;8.45;;;;;;;;;;6273426;22;20389;-81
2022/01/20 08:41:04;;;;;;;31.70;10.45;;;;;;;;;;6274917;22;20004;-81
2022/01/20 08:43:36;;;;;;;52.88;18.38;;;;;;;;;;6275146;22;20011;-81
2022/01/20 08:46:02;;;;;;;41.17;12.20;;;;;;;;;;6275753;22;20011;-80
2022/01/20 08:48:27;;;;;;;48.53;15.88;;;;;;;;;;6276089;22;20018;-81
2022/01/20 08:50:55;;;;;;;53.63;15.23;;;;;;;;;;6274304;22;20065;-79
2022/01/20 08:53:21;;;;;;;22.08;7.93;;;;;;;;;;6276567;22;20562;-80
2022/01/20 08:55:47;;;;;;;40.97;10.38;;;;;;;;;;6272674;22;20004;-79
2022/01/20 08:58:13;;;;;;;22.02;7.03;;;;;;;;;;6272247;22;20004;-80
2022/01/20 09:00:50;;;;;;;31.40;9.75;;;;;;;;;;6274324;22;20442;-79
2022/01/20 09:03:16;;;;;;;21.80;7.00;;;;;;;;;;6278198;22;20023;-87
2022/01/20 09:05:41;;;;;;;36.45;8.43;;;;;;;;;;6277888;22;20027;-87
2022/01/20 09:08:12;;;;;;;24.27;8.25;;;;;;;;;;6278967;22;20004;-91
2022/01/20 09:10:39;;;;;;;23.35;8.20;;;;;;;;;;6253525;22;20527;-85
2022/01/20 09:15:50;;;;;;;24.20;9.02;;;;;;;;;;6274051;22;20085;-84
2022/01/20 09:18:18;;;;;;;24.65;8.82;;;;;;;;;;6275565;22;20192;-86
2022/01/20 09:20:43;;;;;;;36.47;11.40;;;;;;;;;;6277874;22;19999;-87
2022/01/20 09:23:09;;;;;;;27.80;7.93;;;;;;;;;;6256976;22;20034;-89
2022/01/20 09:25:35;;;;;;;27.10;8.63;;;;;;;;;;6276540;22;20000;-90
2022/01/20 09:28:08;;;;;;;28.60;9.95;;;;;;;;;;6250574;22;20585;-85
2022/01/20 09:30:35;;;;;;;28.98;8.50;;;;;;;;;;6273270;22;20004;-90
2022/01/20 09:35:32;;;;;;;27.90;8.35;;;;;;;;;;6278946;22;20462;-85
2022/01/20 09:37:58;;;;;;;29.38;8.73;;;;;;;;;;6275382;22;20492;-89
2022/01/20 09:40:24;;;;;;;39.47;11.07;;;;;;;;;;6275213;22;20354;-87
2022/01/20 09:42:50;;;;;;;39.38;14.02;;;;;;;;;;6277505;22;20020;-81
2022/01/20 09:45:16;;;;;;;38.70;12.75;;;;;;;;;;6270390;22;20397;-78
2022/01/20 09:47:43;;;;;;;30.58;10.50;;;;;;;;;;6272897;22;20254;-78
2022/01/20 09:50:12;;;;;;;46.60;16.02;;;;;;;;;;6245926;22;20000;-79
2022/01/20 09:52:38;;;;;;;36.05;12.07;;;;;;;;;;6272057;22;20000;-79
2022/01/20 09:55:04;;;;;;;39.78;12.27;;;;;;;;;;6274519;22;20023;-78
2022/01/20 09:57:29;;;;;;;36.10;11.45;;;;;;;;;;6279223;22;20010;-85
2022/01/20 09:59:55;;;;;;;39.10;13.98;;;;;;;;;;6278604;22;20091;-89
2022/01/20 10:02:20;;;;;;;42.90;11.95;;;;;;;;;;6289121;22;20299;-88
2022/01/20 10:04:46;;;;;;;36.67;11.88;;;;;;;;;;6238800;22;20023;-89
2022/01/20 10:07:13;;;;;;;36.90;10.75;;;;;;;;;;6260759;22;20004;-89
2022/01/20 10:09:45;;;;;;;39.38;10.93;;;;;;;;;;6226173;22;20034;-87
2022/01/20 10:12:12;;;;;;;28.77;11.57;;;;;;;;;;6277516;22;20106;-86
2022/01/20 10:14:57;;;;;;;41.38;11.40;;;;;;;;;;6282158;22;20089;-88
2022/01/20 10:17:24;;;;;;;27.45;10.07;;;;;;;;;;6228974;22;20619;-86
2022/01/20 10:19:51;;;;;;;33.83;11.20;;;;;;;;;;6272235;22;20054;-89
2022/01/20 10:22:17;;;;;;;40.10;12.60;;;;;;;;;;6244938;22;19996;-88
2022/01/20 10:25:17;;;;;;;36.08;11.88;;;;;;;;;;6271968;22;20468;-88
2022/01/20 10:27:47;;;;;;;23.60;9.52;;;;;;;;;;6273833;22;20431;-86
2022/01/20 10:30:13;;;;;;;29.05;10.73;;;;;;;;;;6279500;22;20003;-91
2022/01/20 10:32:40;;;;;;;25.08;10.70;;;;;;;;;;6246733;22;20004;-85
2022/01/20 10:35:06;;;;;;;34.50;9.57;;;;;;;;;;6274829;22;20030;-88
2022/01/20 10:37:32;;;;;;;30.95;10.45;;;;;;;;;;6218603;22;20303;-85
2022/01/20 10:40:13;;;;;;;34.55;10.15;;;;;;;;;;6272450;22;20010;-87
2022/01/20 10:42:41;;;;;;;26.38;9.70;;;;;;;;;;6273405;22;20331;-90
2022/01/20 10:45:37;;;;;;;33.78;10.50;;;;;;;;;;6260016;22;20031;-93
2022/01/20 10:48:02;;;;;;;32.75;11.40;;;;;;;;;;6290094;22;20014;-91
2022/01/20 10:50:35;;;;;;;26.17;9.82;;;;;;;;;;6260096;22;20030;-94
2022/01/20 10:53:01;;;;;;;33.22;11.27;;;;;;;;;;6281787;22;20007;-89
2022/01/20 10:55:32;;;;;;;32.95;10.45;;;;;;;;;;6237001;22;20057;-91
2022/01/20 10:58:23;;;;;;;28.17;10.00;;;;;;;;;;6286322;22;19999;-92
2022/01/20 11:00:50;;;;;;;26.48;9.00;;;;;;;;;;6287686;22;20004;-86
2022/01/20 11:03:15;;;;;;;34.20;10.40;;;;;;;;;;6277962;22;20004;-79
2022/01/20 11:05:44;;;;;;;22.42;8.73;;;;;;;;;;6276593;22;20465;-79
2022/01/20 11:08:09;;;;;;;34.53;11.98;;;;;;;;;;6272575;22;20004;-79
2022/01/20 11:10:37;;;;;;;22.00;8.98;;;;;;;;;;6272059;22;20008;-78
2022/01/20 11:13:02;;;;;;;41.33;14.25;;;;;;;;;;6272785;22;20000;-78
2022/01/20 11:15:29;;;;;;;27.80;9.48;;;;;;;;;;6246519;22;20019;-78
2022/01/20 11:17:56;;;;;;;33.88;11.40;;;;;;;;;;6276261;22;20087;-78
2022/01/20 11:20:24;;;;;;;32.15;13.48;;;;;;;;;;6273473;22;20089;-78
2022/01/20 11:23:00;;;;;;;21.13;8.10;;;;;;;;;;6275563;22;19996;-79
2022/01/20 11:25:34;;;;;;;21.90;8.75;;;;;;;;;;6249120;22;20057;-90
2022/01/20 11:28:10;;;;;;;25.48;9.57;;;;;;;;;;6282616;22;20011;-88
2022/01/20 11:30:39;;;;;;;22.35;8.05;;;;;;;;;;6279514;22;20069;-87
2022/01/20 11:33:12;;;;;;;22.88;9.40;;;;;;;;;;6286503;22;20000;-93
2022/01/20 11:36:02;;;;;;;30.67;10.50;;;;;;;;;;6263779;22;20077;-92
2022/01/20 11:38:45;;;;;;;28.15;11.43;;;;;;;;;;6282665;22;20089;-93
2022/01/20 11:41:13;;;;;;;27.63;11.07;;;;;;;;;;6227981;22;20003;-91
2022/01/20 11:43:51;;;;;;;32.92;11.15;;;;;;;;;;6283289;22;20012;-90
2022/01/20 11:46:21;;;;;;;31.10;9.27;;;;;;;;;;6254883;22;20014;-91
2022/01/20 11:48:58;;;;;;;21.50;9.10;;;;;;;;;;6255369;22;20427;-91
2022/01/20 11:51:25;;;;;;;28.98;7.10;;;;;;;;;;6276899;22;20059;-91
2022/01/20 11:53:57;;;;;;;31.85;8.63;;;;;;;;;;6283239;22;20445;-91
2022/01/20 11:56:33;;;;;;;28.23;8.00;;;;;;;;;;6276723;22;20000;-89
2022/01/20 11:59:00;;;;;;;23.83;8.70;;;;;;;;;;6277751;22;20003;-81
2022/01/20 12:01:27;;;;;;;30.80;10.73;;;;;;;;;;6247350;22;20014;-86
2022/01/20 12:03:53;;;;;;;26.88;9.82;;;;;;;;;;6273650;22;20061;-84
2022/01/20 12:06:24;;;;;;;29.60;9.10;;;;;;;;;;6277554;22;20086;-87
2022/01/20 12:08:57;;;;;;;27.08;9.40;;;;;;;;;;6248008;22;20069;-86
2022/01/20 12:11:35;;;;;;;24.75;8.98;;;;;;;;;;6273576;22;20065;-84
2022/01/20 12:14:01;;;;;;;24.63;8.63;;;;;;;;;;6275718;22;20502;-87
2022/01/20 12:16:26;;;;;;;34.35;9.35;;;;;;;;;;6279938;22;20003;-87
2022/01/20 12:18:53;;;;;;;31.23;9.20;;;;;;;;;;6275902;22;20000;-87
2022/01/20 12:21:18;;;;;;;26.20;8.75;;;;;;;;;;6220406;22;19999;-82
2022/01/20 12:23:45;;;;;;;24.88;9.00;;;;;;;;;;6279447;22;20210;-89
2022/01/20 12:26:10;;;;;;;43.28;16.25;;;;;;;;;;6280686;22;20133;-91
2022/01/20 12:28:36;;;;;;;91.80;31.63;;;;;;;;;;6284495;22;20003;-91
2022/01/20 12:31:02;;;;;;;72.47;27.55;;;;;;;;;;6287006;22;20022;-92
2022/01/20 12:33:31;;;;;;;74.45;25.23;;;;;;;;;;6286848;22;20324;-88
2022/01/20 12:36:02;;;;;;;86.10;29.17;;;;;;;;;;6279540;22;20011;-90
2022/01/20 12:38:28;;;;;;;105.25;29.10;;;;;;;;;;6279808;22;20091;-92
2022/01/20 12:41:05;;;;;;;131.57;32.67;;;;;;;;;;6281821;22;20011;-90
2022/01/20 12:43:37;;;;;;;97.68;21.52;;;;;;;;;;6249283;22;20022;-89
2022/01/20 12:46:03;;;;;;;42.45;11.88;;;;;;;;;;6274967;22;19999;-90
2022/01/20 12:48:28;;;;;;;90.95;20.52;;;;;;;;;;6277137;22;20350;-90
2022/01/20 12:50:55;;;;;;;179.88;36.83;;;;;;;;;;6277024;22;20007;-88
2022/01/20 12:53:57;;;;;;;79.25;20.15;;;;;;;;;;6275545;22;20473;-92
2022/01/20 12:56:30;;;;;;;53.97;16.02;;;;;;;;;;6244304;22;20446;-89
2022/01/20 12:58:56;;;;;;;100.30;25.25;;;;;;;;;;6276848;22;20008;-92
2022/01/20 13:01:21;;;;;;;178.23;43.28;;;;;;;;;;6281127;22;20002;-94
2022/01/20 13:03:47;;;;;;;75.45;21.73;;;;;;;;;;6256800;22;20015;-91
2022/01/20 13:06:23;;;;;;;77.68;22.17;;;;;;;;;;6280194;22;20003;-89
2022/01/20 13:09:15;;;;;;;39.90;14.32;;;;;;;;;;6276992;22;20351;-92
2022/01/20 13:11:46;;;;;;;39.47;14.95;;;;;;;;;;6276721;22;20413;-92
2022/01/20 13:14:11;;;;;;;40.53;14.95;;;;;;;;;;6278310;22;20078;-91
2022/01/20 13:16:58;;;;;;;45.47;16.48;;;;;;;;;;6250717;22;20004;-91
2022/01/20 13:19:37;;;;;;;35.15;11.68;;;;;;;;;;6276977;22;20343;-90
2022/01/20 13:22:05;;;;;;;43.30;14.13;;;;;;;;;;6273973;22;20189;-89
2022/01/20 13:24:32;;;;;;;44.63;16.35;;;;;;;;;;6275023;22;19995;-90
2022/01/20 13:26:58;;;;;;;42.00;14.38;;;;;;;;;;6248469;22;20090;-88
2022/01/20 13:29:24;;;;;;;30.67;11.70;;;;;;;;;;6276330;22;20002;-89
2022/01/20 13:31:51;;;;;;;30.67;11.88;;;;;;;;;;6276255;22;20008;-88
2022/01/20 13:34:18;;;;;;;39.05;14.60;;;;;;;;;;6275902;22;19996;-90
2022/01/20 13:36:51;;;;;;;37.97;13.70;;;;;;;;;;6274175;22;20000;-88
2022/01/20 13:39:37;;;;;;;39.10;13.48;;;;;;;;;;6274999;22;20003;-88
2022/01/20 13:42:19;;;;;;;27.58;10.18;;;;;;;;;;6275269;22;20006;-88
2022/01/20 13:45:12;;;;;;;25.95;8.75;;;;;;;;;;6277418;22;20083;-85
2022/01/20 13:47:55;;;;;;;30.55;12.52;;;;;;;;;;6273464;22;20073;-79
2022/01/20 13:50:31;;;;;;;48.28;16.80;;;;;;;;;;6274489;22;20473;-78
2022/01/20 13:52:57;;;;;;;43.40;16.38;;;;;;;;;;6273395;22;20136;-78
2022/01/20 13:55:22;;;;;;;36.15;12.50;;;;;;;;;;6247714;22;20003;-78
2022/01/20 13:57:48;;;;;;;28.90;10.35;;;;;;;;;;6274644;22;20000;-79
2022/01/20 14:00:14;;;;;;;31.35;10.98;;;;;;;;;;6275186;22;20472;-93
2022/01/20 14:02:41;;;;;;;27.55;9.48;;;;;;;;;;6275498;22;20003;-93
2022/01/20 14:05:06;;;;;;;29.40;10.02;;;;;;;;;;6275726;22;20007;-90
2022/01/20 14:07:33;;;;;;;35.88;11.32;;;;;;;;;;6248242;22;20426;-90
2022/01/20 14:09:58;;;;;;;55.28;16.75;;;;;;;;;;6247982;22;20031;-88
2022/01/20 14:12:24;;;;;;;36.80;13.05;;;;;;;;;;6248656;22;20431;-90
2022/01/20 14:14:49;;;;;;;29.98;11.07;;;;;;;;;;6249786;22;20007;-88
2022/01/20 14:17:19;;;;;;;41.92;16.58;;;;;;;;;;6276909;22;20007;-81
2022/01/20 14:19:46;;;;;;;26.05;10.57;;;;;;;;;;6276945;22;20079;-80
2022/01/20 14:22:12;;;;;;;33.05;11.65;;;;;;;;;;6275308;22;20492;-82
2022/01/20 14:24:38;;;;;;;31.55;10.80;;;;;;;;;;6274856;22;19995;-82
2022/01/20 14:27:12;;;;;;;36.03;12.48;;;;;;;;;;6276736;22;20010;-81
2022/01/20 14:29:38;;;;;;;33.60;11.40;;;;;;;;;;6275068;22;20048;-81
2022/01/20 14:32:04;;;;;;;42.35;15.63;;;;;;;;;;6276248;22;20397;-79
2022/01/20 14:34:30;;;;;;;28.10;10.93;;;;;;;;;;6276640;22;20002;-80
2022/01/20 14:36:55;;;;;;;27.33;11.38;;;;;;;;;;6277951;22;20004;-93
2022/01/20 14:39:21;;;;;;;34.92;11.65;;;;;;;;;;6284427;22;20000;-91
2022/01/20 14:41:46;;;;;;;37.85;11.25;;;;;;;;;;6274529;22;19996;-91
2022/01/20 14:44:12;;;;;;;43.67;12.85;;;;;;;;;;6302510;22;20006;-83
2022/01/20 14:46:37;;;;;;;46.65;15.27;;;;;;;;;;6278193;22;20019;-91
2022/01/20 14:49:03;;;;;;;26.75;11.35;;;;;;;;;;6278208;22;19988;-88
2022/01/20 14:51:28;;;;;;;34.10;12.50;;;;;;;;;;6297472;22;20004;-90
2022/01/20 14:53:53;;;;;;;31.92;11.82;;;;;;;;;;6294478;22;19999;-91
2022/01/20 14:56:19;;;;;;;37.25;13.60;;;;;;;;;;6289332;22;20394;-93
2022/01/20 14:58:47;;;;;;;37.47;13.32;;;;;;;;;;6290516;22;20007;-93
2022/01/20 15:01:13;;;;;;;32.80;11.70;;;;;;;;;;6287388;22;19992;-90
2022/01/20 15:03:38;;;;;;;34.20;12.05;;;;;;;;;;6291594;22;20031;-90
2022/01/20 15:06:04;;;;;;;41.65;14.73;;;;;;;;;;6262553;22;19999;-92
2022/01/20 15:08:30;;;;;;;50.33;18.23;;;;;;;;;;6295652;22;20000;-91
2022/01/20 15:10:55;;;;;;;71.30;25.60;;;;;;;;;;6294192;22;20430;-91
2022/01/20 15:13:20;;;;;;;66.35;24.02;;;;;;;;;;6264626;22;19995;-89
2022/01/20 15:15:46;;;;;;;70.18;23.70;;;;;;;;;;6302812;22;19991;-87
2022/01/20 15:18:11;;;;;;;58.85;20.83;;;;;;;;;;6300976;22;20011;-89
2022/01/20 15:20:37;;;;;;;71.13;23.13;;;;;;;;;;6302718;22;20018;-87
2022/01/20 15:23:02;;;;;;;61.65;22.10;;;;;;;;;;6301331;22;20401;-88
2022/01/20 15:25:28;;;;;;;83.65;25.27;;;;;;;;;;6302192;22;20071;-87
2022/01/20 15:27:54;;;;;;;72.50;25.23;;;;;;;;;;6300699;22;20015;-91
2022/01/20 15:30:21;;;;;;;85.35;27.00;;;;;;;;;;6298777;22;20003;-89
2022/01/20 15:32:46;;;;;;;113.85;33.50;;;;;;;;;;6272407;22;20034;-91